CheckWX is a tool to help pilots better visualize weather data.  It is not intended as a substitute for an official pre-flight weather briefing.

02:28:43 UTC

KCQM METAR
Cook Municipal Airport
Cook, Minnesota, USA
Current

14 mins ago

KCQM 180215Z AUTO 01003KT 10SM CLR M13/M17 A3019 RMK AO2
Observed
Feb-18 @ 02:15 UTC
Wind
  • 010° at 3 KTS
Visibility
10 SM
Flight Rules
VFR
Cloud Levels
  • Clear skies
Temperature
-13°C / 9°F
Dewpoint
-17°C / 1°F
Humidity
72%
Altimeter
30.19" Hg
Pressure
1022.32 hPa
Previous

34 mins ago

KCQM 180155Z AUTO 00000KT 10SM CLR M13/M17 A3019 RMK AO2
Observed
Feb-18 @ 01:55 UTC
Visibility
10 SM
Flight Rules
VFR
Cloud Levels
  • Clear skies
Temperature
-13°C / 9°F
Dewpoint
-17°C / 1°F
Humidity
72%
Altimeter
30.19" Hg
Pressure
1022.32 hPa
Previous

53 mins ago

KCQM 180136Z AUTO 00000KT 10SM CLR M12/M17 A3019 RMK AO2
Observed
Feb-18 @ 01:36 UTC
Visibility
10 SM
Flight Rules
VFR
Cloud Levels
  • Clear skies
Temperature
-12°C / 10°F
Dewpoint
-17°C / 1°F
Humidity
67%
Altimeter
30.19" Hg
Pressure
1022.32 hPa